sensor_id;sensor_type;location;lat;lon;timestamp;P1;durP1;ratioP1;P2;durP2;ratioP2
18627;SDS011;9443;50.888;10.728;2022-09-02T00:09:03;1.40;;;1.00;;
18627;SDS011;9443;50.888;10.728;2022-09-02T00:19:04;1.77;;;1.10;;
18627;SDS011;9443;50.888;10.728;2022-09-02T00:29:05;2.43;;;1.00;;
18627;SDS011;9443;50.888;10.728;2022-09-02T00:39:06;2.50;;;1.20;;
18627;SDS011;9443;50.888;10.728;2022-09-02T00:49:15;1.70;;;1.40;;
18627;SDS011;9443;50.888;10.728;2022-09-02T00:59:26;1.77;;;1.30;;
18627;SDS011;9443;50.888;10.728;2022-09-02T01:10:00;3.77;;;1.70;;
18627;SDS011;9443;50.888;10.728;2022-09-02T01:20:03;3.10;;;1.73;;
18627;SDS011;9443;50.888;10.728;2022-09-02T01:30:06;3.03;;;1.97;;
18627;SDS011;9443;50.888;10.728;2022-09-02T01:40:11;4.77;;;2.20;;
18627;SDS011;9443;50.888;10.728;2022-09-02T01:50:15;2.63;;;2.30;;
18627;SDS011;9443;50.888;10.728;2022-09-02T02:00:15;3.83;;;2.50;;
18627;SDS011;9443;50.888;10.728;2022-09-02T02:10:17;5.20;;;2.07;;
18627;SDS011;9443;50.888;10.728;2022-09-02T02:20:19;3.97;;;2.10;;
18627;SDS011;9443;50.888;10.728;2022-09-02T02:30:20;2.50;;;2.20;;
18627;SDS011;9443;50.888;10.728;2022-09-02T02:40:21;4.13;;;2.30;;
18627;SDS011;9443;50.888;10.728;2022-09-02T02:50:23;2.67;;;2.13;;
18627;SDS011;9443;50.888;10.728;2022-09-02T03:00:25;2.13;;;1.93;;
18627;SDS011;9443;50.888;10.728;2022-09-02T03:10:27;3.33;;;1.73;;
18627;SDS011;9443;50.888;10.728;2022-09-02T03:20:31;2.80;;;1.87;;
18627;SDS011;9443;50.888;10.728;2022-09-02T03:30:32;5.70;;;1.70;;
18627;SDS011;9443;50.888;10.728;2022-09-02T03:40:35;1.63;;;1.53;;
18627;SDS011;9443;50.888;10.728;2022-09-02T03:50:36;1.50;;;1.40;;
18627;SDS011;9443;50.888;10.728;2022-09-02T04:00:39;2.10;;;1.90;;
18627;SDS011;9443;50.888;10.728;2022-09-02T04:10:39;3.53;;;1.80;;
18627;SDS011;9443;50.888;10.728;2022-09-02T04:20:40;3.17;;;1.67;;
18627;SDS011;9443;50.888;10.728;2022-09-02T04:30:42;2.77;;;1.90;;
18627;SDS011;9443;50.888;10.728;2022-09-02T04:40:43;4.83;;;2.00;;
18627;SDS011;9443;50.888;10.728;2022-09-02T04:50:45;3.23;;;2.13;;
18627;SDS011;9443;50.888;10.728;2022-09-02T05:00:46;1.77;;;1.60;;
18627;SDS011;9443;50.888;10.728;2022-09-02T05:10:47;3.30;;;1.93;;
18627;SDS011;9443;50.888;10.728;2022-09-02T05:20:49;4.63;;;2.80;;
18627;SDS011;9443;50.888;10.728;2022-09-02T05:30:50;3.27;;;1.67;;
18627;SDS011;9443;50.888;10.728;2022-09-02T05:40:50;2.47;;;1.83;;
18627;SDS011;9443;50.888;10.728;2022-09-02T05:50:50;7.00;;;2.30;;
18627;SDS011;9443;50.888;10.728;2022-09-02T06:00:50;6.87;;;2.47;;
18627;SDS011;9443;50.888;10.728;2022-09-02T06:10:51;4.30;;;2.77;;
18627;SDS011;9443;50.888;10.728;2022-09-02T06:20:51;9.97;;;2.60;;
18627;SDS011;9443;50.888;10.728;2022-09-02T06:30:51;5.20;;;2.70;;
18627;SDS011;9443;50.888;10.728;2022-09-02T06:40:52;5.87;;;2.83;;
18627;SDS011;9443;50.888;10.728;2022-09-02T06:50:54;5.00;;;3.10;;
18627;SDS011;9443;50.888;10.728;2022-09-02T07:00:55;6.00;;;3.20;;
18627;SDS011;9443;50.888;10.728;2022-09-02T07:10:55;8.63;;;3.20;;
18627;SDS011;9443;50.888;10.728;2022-09-02T07:20:55;6.20;;;2.37;;
18627;SDS011;9443;50.888;10.728;2022-09-02T07:30:56;5.87;;;2.80;;
18627;SDS011;9443;50.888;10.728;2022-09-02T07:40:56;4.07;;;2.67;;
18627;SDS011;9443;50.888;10.728;2022-09-02T07:50:56;6.60;;;2.43;;
18627;SDS011;9443;50.888;10.728;2022-09-02T08:00:57;4.95;;;2.90;;
18627;SDS011;9443;50.888;10.728;2022-09-02T08:10:57;4.83;;;2.77;;
18627;SDS011;9443;50.888;10.728;2022-09-02T08:20:58;4.03;;;2.43;;
18627;SDS011;9443;50.888;10.728;2022-09-02T08:30:59;4.20;;;2.25;;
18627;SDS011;9443;50.888;10.728;2022-09-02T08:41:10;2.88;;;1.98;;
18627;SDS011;9443;50.888;10.728;2022-09-02T08:51:15;3.25;;;2.10;;
18627;SDS011;9443;50.888;10.728;2022-09-02T09:01:31;5.03;;;1.70;;
18627;SDS011;9443;50.888;10.728;2022-09-02T09:11:47;4.82;;;2.17;;
18627;SDS011;9443;50.888;10.728;2022-09-02T09:21:59;1.70;;;1.40;;
18627;SDS011;9443;50.888;10.728;2022-09-02T09:32:02;3.63;;;1.20;;
18627;SDS011;9443;50.888;10.728;2022-09-02T09:42:12;2.03;;;0.70;;
18627;SDS011;9443;50.888;10.728;2022-09-02T09:52:23;3.00;;;1.02;;
18627;SDS011;9443;50.888;10.728;2022-09-02T10:02:27;1.63;;;1.10;;
18627;SDS011;9443;50.888;10.728;2022-09-02T10:12:31;2.55;;;0.95;;
18627;SDS011;9443;50.888;10.728;2022-09-02T10:33:13;1.20;;;0.85;;
18627;SDS011;9443;50.888;10.728;2022-09-02T10:43:29;1.88;;;0.70;;
18627;SDS011;9443;50.888;10.728;2022-09-02T11:24:59;2.47;;;1.00;;
18627;SDS011;9443;50.888;10.728;2022-09-02T11:34:45;2.13;;;0.80;;
18627;SDS011;9443;50.888;10.728;2022-09-02T11:44:55;1.05;;;0.77;;
18627;SDS011;9443;50.888;10.728;2022-09-02T12:15:29;2.65;;;0.80;;
18627;SDS011;9443;50.888;10.728;2022-09-02T12:45:39;0.60;;;0.60;;
18627;SDS011;9443;50.888;10.728;2022-09-02T12:55:41;1.63;;;1.08;;
18627;SDS011;9443;50.888;10.728;2022-09-02T13:26:45;1.10;;;0.85;;
18627;SDS011;9443;50.888;10.728;2022-09-02T13:37:25;2.38;;;0.98;;
18627;SDS011;9443;50.888;10.728;2022-09-02T13:47:26;2.15;;;0.90;;
18627;SDS011;9443;50.888;10.728;2022-09-02T13:57:27;0.88;;;0.68;;
18627;SDS011;9443;50.888;10.728;2022-09-02T14:07:36;1.45;;;0.80;;
18627;SDS011;9443;50.888;10.728;2022-09-02T14:17:38;0.70;;;0.70;;
18627;SDS011;9443;50.888;10.728;2022-09-02T14:27:38;2.50;;;1.00;;
18627;SDS011;9443;50.888;10.728;2022-09-02T14:37:47;1.95;;;1.00;;
18627;SDS011;9443;50.888;10.728;2022-09-02T14:47:49;3.50;;;0.80;;
18627;SDS011;9443;50.888;10.728;2022-09-02T14:57:56;0.80;;;0.80;;
18627;SDS011;9443;50.888;10.728;2022-09-02T15:08:00;1.55;;;0.88;;
18627;SDS011;9443;50.888;10.728;2022-09-02T15:18:01;1.90;;;1.13;;
18627;SDS011;9443;50.888;10.728;2022-09-02T15:28:02;1.00;;;0.90;;
18627;SDS011;9443;50.888;10.728;2022-09-02T15:38:02;0.90;;;0.90;;
18627;SDS011;9443;50.888;10.728;2022-09-02T15:48:03;0.63;;;0.63;;
18627;SDS011;9443;50.888;10.728;2022-09-02T15:58:05;2.28;;;0.85;;
18627;SDS011;9443;50.888;10.728;2022-09-02T16:08:05;1.20;;;0.70;;
18627;SDS011;9443;50.888;10.728;2022-09-02T16:18:05;3.80;;;0.90;;
18627;SDS011;9443;50.888;10.728;2022-09-02T16:28:06;0.75;;;0.75;;
18627;SDS011;9443;50.888;10.728;2022-09-02T16:38:06;1.40;;;0.93;;
18627;SDS011;9443;50.888;10.728;2022-09-02T16:48:06;0.80;;;0.80;;
18627;SDS011;9443;50.888;10.728;2022-09-02T16:58:07;2.67;;;0.80;;
18627;SDS011;9443;50.888;10.728;2022-09-02T17:08:09;2.08;;;0.70;;
18627;SDS011;9443;50.888;10.728;2022-09-02T17:18:09;2.30;;;1.15;;
18627;SDS011;9443;50.888;10.728;2022-09-02T17:28:11;0.60;;;0.60;;
18627;SDS011;9443;50.888;10.728;2022-09-02T17:38:11;2.15;;;0.73;;
18627;SDS011;9443;50.888;10.728;2022-09-02T17:48:11;1.77;;;0.70;;
18627;SDS011;9443;50.888;10.728;2022-09-02T17:58:12;1.00;;;0.60;;
18627;SDS011;9443;50.888;10.728;2022-09-02T18:08:34;1.05;;;0.70;;
18627;SDS011;9443;50.888;10.728;2022-09-02T18:18:39;1.15;;;0.63;;
18627;SDS011;9443;50.888;10.728;2022-09-02T18:28:53;3.42;;;0.80;;
18627;SDS011;9443;50.888;10.728;2022-09-02T18:49:39;0.98;;;0.88;;
18627;SDS011;9443;50.888;10.728;2022-09-02T18:59:55;1.15;;;0.85;;
18627;SDS011;9443;50.888;10.728;2022-09-02T19:10:09;1.95;;;0.95;;
18627;SDS011;9443;50.888;10.728;2022-09-02T19:20:09;3.22;;;0.90;;
18627;SDS011;9443;50.888;10.728;2022-09-02T19:30:11;2.15;;;0.90;;
18627;SDS011;9443;50.888;10.728;2022-09-02T19:40:17;1.08;;;0.77;;
18627;SDS011;9443;50.888;10.728;2022-09-02T19:50:19;4.38;;;1.00;;
18627;SDS011;9443;50.888;10.728;2022-09-02T20:00:20;3.45;;;1.02;;
18627;SDS011;9443;50.888;10.728;2022-09-02T20:10:21;4.95;;;2.42;;
18627;SDS011;9443;50.888;10.728;2022-09-02T20:20:22;4.43;;;1.93;;
18627;SDS011;9443;50.888;10.728;2022-09-02T20:30:25;23.50;;;6.23;;
18627;SDS011;9443;50.888;10.728;2022-09-02T20:50:48;9.93;;;4.53;;
18627;SDS011;9443;50.888;10.728;2022-09-02T21:00:58;18.37;;;8.87;;
18627;SDS011;9443;50.888;10.728;2022-09-02T21:11:06;11.20;;;4.87;;
18627;SDS011;9443;50.888;10.728;2022-09-02T21:31:36;4.80;;;1.70;;
18627;SDS011;9443;50.888;10.728;2022-09-02T21:41:45;3.37;;;1.53;;
18627;SDS011;9443;50.888;10.728;2022-09-02T22:22:12;9.07;;;3.17;;
18627;SDS011;9443;50.888;10.728;2022-09-02T22:32:15;16.03;;;4.60;;
18627;SDS011;9443;50.888;10.728;2022-09-02T22:42:21;8.47;;;2.80;;
18627;SDS011;9443;50.888;10.728;2022-09-02T22:52:34;3.30;;;1.67;;
18627;SDS011;9443;50.888;10.728;2022-09-02T23:02:46;4.33;;;1.70;;
18627;SDS011;9443;50.888;10.728;2022-09-02T23:13:07;8.33;;;2.53;;
18627;SDS011;9443;50.888;10.728;2022-09-02T23:33:34;8.73;;;3.60;;
18627;SDS011;9443;50.888;10.728;2022-09-02T23:43:48;10.63;;;3.73;;
18627;SDS011;9443;50.888;10.728;2022-09-02T23:54:00;2.77;;;1.93;;
